createdAt,value
2024-03-06T00:03:58.906Z,5.84
2024-03-06T00:08:50.718Z,5.83
2024-03-06T00:13:42.708Z,5.81
2024-03-06T00:18:34.653Z,5.79
2024-03-06T00:23:26.229Z,5.76
2024-03-06T00:28:17.934Z,5.71
2024-03-06T00:33:09.716Z,5.64
2024-03-06T00:38:04.554Z,5.62
2024-03-06T00:42:56.188Z,5.56
2024-03-06T00:47:47.962Z,5.53
2024-03-06T00:52:39.649Z,5.52
2024-03-06T00:57:31.269Z,5.47
2024-03-06T01:02:24.307Z,5.45
2024-03-06T01:07:18.131Z,5.42
2024-03-06T01:12:09.754Z,5.36
2024-03-06T01:17:01.645Z,5.36
2024-03-06T01:21:53.341Z,5.32
2024-03-06T01:26:44.966Z,5.27
2024-03-06T01:31:36.611Z,5.31
2024-03-06T01:36:28.274Z,5.32
2024-03-06T01:41:19.930Z,5.30
2024-03-06T01:46:11.603Z,5.29
2024-03-06T01:51:06.091Z,5.27
2024-03-06T01:55:58.080Z,5.21
2024-03-06T02:00:51.408Z,5.15
2024-03-06T02:05:44.379Z,5.08
2024-03-06T02:10:36.158Z,5.05
2024-03-06T02:15:27.872Z,5.00
2024-03-06T02:20:24.778Z,4.97
2024-03-06T02:25:16.831Z,4.92
2024-03-06T02:30:08.916Z,4.89
2024-03-06T02:35:03.207Z,4.85
2024-03-06T02:39:55.206Z,4.83
2024-03-06T02:44:46.838Z,4.81
2024-03-06T02:49:38.699Z,4.79
2024-03-06T02:54:30.402Z,4.77
2024-03-06T02:59:22.202Z,4.75
2024-03-06T03:04:14.110Z,4.74
2024-03-06T03:09:05.927Z,4.74
2024-03-06T03:13:58.178Z,4.69
2024-03-06T03:18:49.909Z,4.68
2024-03-06T03:23:41.777Z,4.63
2024-03-06T03:28:33.705Z,4.60
2024-03-06T03:33:25.802Z,4.55
2024-03-06T03:38:18.350Z,4.51
2024-03-06T03:43:10.067Z,4.50
2024-03-06T03:48:03.893Z,4.47
2024-03-06T03:52:55.544Z,4.46
2024-03-06T03:57:47.184Z,4.45
2024-03-06T04:02:39.449Z,4.39
2024-03-06T04:07:31.283Z,4.34
2024-03-06T04:12:22.915Z,4.31
2024-03-06T04:17:14.727Z,4.25
2024-03-06T04:22:06.682Z,4.22
2024-03-06T04:26:58.259Z,4.19
2024-03-06T04:31:49.872Z,4.13
2024-03-06T04:36:41.587Z,4.09
2024-03-06T04:41:33.233Z,4.03
2024-03-06T04:46:24.860Z,4.08
2024-03-06T04:51:16.616Z,4.11
2024-03-06T04:56:08.759Z,4.11
2024-03-06T05:01:00.494Z,4.13
2024-03-06T06:02:41.249Z,3.65
2024-03-06T06:07:32.857Z,3.57
2024-03-06T06:12:24.469Z,3.51
2024-03-06T06:17:16.987Z,3.41
2024-03-06T06:22:08.730Z,3.36
2024-03-06T06:27:00.335Z,3.34
2024-03-06T06:31:51.962Z,3.36
2024-03-06T06:36:47.557Z,3.33
2024-03-06T06:41:39.214Z,3.30
2024-03-06T06:46:30.859Z,3.26
2024-03-06T06:51:24.265Z,3.25
2024-03-06T06:56:16.101Z,3.36
2024-03-06T07:01:07.711Z,3.46
2024-03-06T07:05:59.569Z,3.42
2024-03-06T07:10:52.375Z,3.24
2024-03-06T07:15:44.054Z,3.08
2024-03-06T07:20:35.857Z,3.06
2024-03-06T07:25:27.477Z,3.03
2024-03-06T07:30:19.547Z,3.10
2024-03-06T07:35:11.669Z,3.13
2024-03-06T07:40:04.481Z,3.17
2024-03-06T07:44:56.088Z,3.22
2024-03-06T07:49:48.032Z,3.22
2024-03-06T07:54:40.784Z,3.23
2024-03-06T07:59:33.447Z,3.17
2024-03-06T08:04:26.078Z,3.18
2024-03-06T08:09:18.161Z,3.20
2024-03-06T08:14:09.806Z,3.27
2024-03-06T08:19:01.762Z,3.29
2024-03-06T08:23:53.363Z,3.36
2024-03-06T08:28:45.058Z,3.43
2024-03-06T08:33:36.800Z,3.49
2024-03-06T08:38:28.638Z,3.56
2024-03-06T08:43:21.186Z,3.63
2024-03-06T08:48:13.076Z,3.67
2024-03-06T08:53:04.974Z,3.71
2024-03-06T08:57:56.554Z,3.83
2024-03-06T09:02:48.353Z,3.93
2024-03-06T09:07:44.011Z,4.01
2024-03-06T09:12:35.706Z,4.08
2024-03-06T09:17:27.966Z,4.17
2024-03-06T09:22:19.646Z,4.27
2024-03-06T09:27:11.269Z,4.38
2024-03-06T09:32:03.300Z,4.52
2024-03-06T09:36:54.958Z,4.62
2024-03-06T09:41:47.383Z,4.72
2024-03-06T09:46:40.274Z,4.87
2024-03-06T09:51:32.919Z,4.94
2024-03-06T09:56:24.568Z,5.08
2024-03-06T10:01:18.088Z,5.20
2024-03-06T10:06:12.047Z,5.27
2024-03-06T10:11:05.902Z,5.45
2024-03-06T10:15:59.346Z,5.54
2024-03-06T10:20:51.199Z,5.60
2024-03-06T10:25:44.724Z,5.73
2024-03-06T10:30:38.982Z,5.81
2024-03-06T10:35:30.749Z,5.89
2024-03-06T10:40:24.147Z,5.97
2024-03-06T10:45:19.177Z,6.00
2024-03-06T10:50:13.703Z,6.33
2024-03-06T10:55:05.882Z,6.74
2024-03-06T11:00:03.395Z,7.23
2024-03-06T11:04:57.546Z,7.50
2024-03-06T11:09:49.932Z,7.88
2024-03-06T11:14:41.859Z,8.18
2024-03-06T11:19:54.372Z,8.13
2024-03-06T11:24:45.997Z,8.12
2024-03-06T11:30:05.348Z,8.22
2024-03-06T11:34:56.987Z,8.39
2024-03-06T11:39:49.180Z,8.83
2024-03-06T11:44:58.481Z,9.37
2024-03-06T11:49:51.231Z,9.54
2024-03-06T11:54:42.818Z,9.81
2024-03-06T11:59:36.856Z,10.02
2024-03-06T12:04:29.144Z,9.97
2024-03-06T12:09:20.805Z,9.61
2024-03-06T12:14:20.121Z,9.57
2024-03-06T12:19:11.848Z,9.57
2024-03-06T12:24:07.809Z,9.47
2024-03-06T12:29:10.981Z,9.45
2024-03-06T12:34:06.162Z,9.36
2024-03-06T12:39:00.854Z,9.26
2024-03-06T12:43:52.512Z,9.27
2024-03-06T12:48:44.366Z,9.31
2024-03-06T12:53:36.628Z,9.46
2024-03-06T12:58:28.505Z,9.60
2024-03-06T13:03:20.151Z,9.54
2024-03-06T13:08:15.279Z,9.39
2024-03-06T13:13:07.928Z,9.41
2024-03-06T13:17:59.673Z,9.34
2024-03-06T13:22:51.292Z,9.22
2024-03-06T13:27:43.035Z,9.07
2024-03-06T13:32:34.873Z,8.94
2024-03-06T13:37:26.676Z,8.88
2024-03-06T13:42:18.459Z,8.77
2024-03-06T13:47:19.714Z,8.80
2024-03-06T13:52:11.914Z,8.79
2024-03-06T13:57:04.246Z,8.91
2024-03-06T14:01:55.875Z,9.06
2024-03-06T14:06:47.551Z,9.13
2024-03-06T14:11:39.530Z,9.02
2024-03-06T14:16:32.323Z,9.01
2024-03-06T14:21:24.020Z,8.92
2024-03-06T14:26:16.679Z,8.86
2024-03-06T14:31:09.041Z,8.96
2024-03-06T14:36:01.044Z,9.02
2024-03-06T14:40:52.700Z,9.11
2024-03-06T14:45:46.819Z,9.17
2024-03-06T14:50:38.448Z,9.12
2024-03-06T14:55:30.149Z,9.05
2024-03-06T15:00:22.548Z,9.00
2024-03-06T15:05:14.435Z,8.94
2024-03-06T15:10:07.518Z,8.89
2024-03-06T15:14:59.552Z,8.87
2024-03-06T15:19:51.322Z,8.96
2024-03-06T15:24:45.517Z,9.03
2024-03-06T15:29:37.179Z,9.00
2024-03-06T15:34:28.874Z,9.04
2024-03-06T15:39:22.569Z,9.10
2024-03-06T15:44:14.458Z,9.17
2024-03-06T15:49:22.033Z,9.22
2024-03-06T15:54:13.821Z,9.14
2024-03-06T15:59:05.473Z,9.04
2024-03-06T16:03:57.112Z,8.95
2024-03-06T16:08:48.829Z,8.86
2024-03-06T16:13:40.808Z,8.81
2024-03-06T16:18:32.494Z,8.73
2024-03-06T16:23:24.090Z,8.60
2024-03-06T16:28:15.736Z,8.51
2024-03-06T16:33:08.589Z,8.47
2024-03-06T16:38:00.330Z,8.43
2024-03-06T16:42:51.909Z,8.45
2024-03-06T16:47:43.668Z,8.38
2024-03-06T16:52:35.320Z,8.32
2024-03-06T16:57:26.967Z,8.30
2024-03-06T17:02:18.642Z,8.22
2024-03-06T17:07:13.448Z,8.17
2024-03-06T17:12:08.853Z,8.14
2024-03-06T17:17:02.105Z,8.09
2024-03-06T17:21:53.764Z,8.00
2024-03-06T17:26:46.525Z,7.97
2024-03-06T17:31:38.529Z,7.86
2024-03-06T17:36:31.901Z,7.81
2024-03-06T17:41:25.475Z,7.76
2024-03-06T17:46:17.515Z,7.66
2024-03-06T17:51:09.256Z,7.60
2024-03-06T17:56:00.967Z,7.51
2024-03-06T18:00:52.722Z,7.46
2024-03-06T18:05:44.353Z,7.38
2024-03-06T18:10:36.249Z,7.31
2024-03-06T18:15:27.910Z,7.23
2024-03-06T18:20:19.650Z,7.19
2024-03-06T18:25:11.247Z,7.12
2024-03-06T18:30:04.297Z,7.04
2024-03-06T18:34:58.891Z,6.98
2024-03-06T18:39:51.510Z,6.90
2024-03-06T18:44:43.421Z,6.82
2024-03-06T18:49:35.044Z,6.72
2024-03-06T18:54:27.598Z,6.69
2024-03-06T18:59:19.384Z,6.60
2024-03-06T19:04:11.291Z,6.57
2024-03-06T19:09:06.610Z,6.49
2024-03-06T19:13:58.397Z,6.43
2024-03-06T19:18:50.002Z,6.35
2024-03-06T19:23:41.708Z,6.32
2024-03-06T19:28:33.598Z,6.25
2024-03-06T19:33:25.325Z,6.23
2024-03-06T19:38:19.510Z,6.19
2024-03-06T19:43:13.121Z,6.17
2024-03-06T19:48:05.321Z,6.12
2024-03-06T19:52:57.049Z,6.08
2024-03-06T19:57:49.935Z,6.04
2024-03-06T20:02:41.649Z,6.02
2024-03-06T20:07:34.133Z,6.00
2024-03-06T20:12:25.968Z,5.96
2024-03-06T20:17:18.105Z,5.95
2024-03-06T20:22:09.816Z,5.91
2024-03-06T20:27:04.019Z,5.87
2024-03-06T20:31:56.258Z,5.85
2024-03-06T20:36:47.995Z,5.81
2024-03-06T20:41:41.211Z,5.79
2024-03-06T20:46:33.088Z,5.77
2024-03-06T20:51:24.762Z,5.76
2024-03-06T20:56:16.520Z,5.73
2024-03-06T21:01:09.393Z,5.72
2024-03-06T21:06:01.022Z,5.68
2024-03-06T21:10:52.786Z,5.63
2024-03-06T21:15:44.420Z,5.62
2024-03-06T21:20:36.156Z,5.59
2024-03-06T21:25:27.970Z,5.55
2024-03-06T21:30:19.816Z,5.53
2024-03-06T21:35:11.656Z,5.51
2024-03-06T21:40:09.624Z,5.49
2024-03-06T21:45:01.325Z,5.47
2024-03-06T21:49:53.080Z,5.44
2024-03-06T21:54:45.072Z,5.42
2024-03-06T21:59:36.842Z,5.38
2024-03-06T22:04:28.411Z,5.37
2024-03-06T22:09:20.023Z,5.35
2024-03-06T22:14:12.888Z,5.33
2024-03-06T22:19:05.729Z,5.32
2024-03-06T22:23:58.251Z,5.31
2024-03-06T22:28:49.948Z,5.27
2024-03-06T22:33:42.921Z,5.26
2024-03-06T22:38:34.563Z,5.23
2024-03-06T22:43:26.176Z,5.20
2024-03-06T22:48:17.874Z,5.15
2024-03-06T22:53:09.779Z,5.12
2024-03-06T22:58:01.861Z,5.06
2024-03-06T23:02:53.496Z,5.05
2024-03-06T23:07:45.149Z,4.99
2024-03-06T23:12:37.070Z,4.98
2024-03-06T23:17:29.188Z,4.93
2024-03-06T23:22:20.861Z,4.88
2024-03-06T23:27:12.533Z,4.88
2024-03-06T23:32:04.480Z,4.85
2024-03-06T23:36:56.190Z,4.81
2024-03-06T23:41:47.956Z,4.77
2024-03-06T23:46:39.633Z,4.73
2024-03-06T23:51:31.300Z,4.70
2024-03-06T23:56:23.002Z,4.69
